Time;durP1;ratioP1;P1;durP2;ratioP2;P2;SDS_P1;SDS_P2;PMS_P1;PMS_P2;Temp;Humidity;BMP_temperature;BMP_pressure;BME280_temperature;BME280_humidity;BME280_pressure;Samples;Min_cycle;Max_cycle;Signal;HPM_P1;HPM_P2
2022/05/28 00:01:45;;;;;;;1.48;0.77;;;12.30;99.90;;;12.42;70.64;101543.66;5205717;28;20045;-71
2022/05/28 00:04:17;;;;;;;1.42;0.98;;;12.30;99.90;;;12.38;71.17;101536.50;5205697;28;20398;-71
2022/05/28 00:06:49;;;;;;;1.05;0.60;;;12.20;99.90;;;12.35;71.41;101542.53;5205242;28;20414;-71
2022/05/28 00:09:21;;;;;;;2.38;0.77;;;12.20;99.90;;;12.31;71.78;101545.84;5207375;28;20486;-72
2022/05/28 00:11:55;;;;;;;2.95;0.70;;;12.10;99.90;;;12.27;71.68;101548.28;5209206;28;20049;-72
2022/05/28 00:14:27;;;;;;;2.50;0.70;;;12.10;99.90;;;12.21;71.53;101547.22;5209515;28;20498;-71
2022/05/28 00:16:59;;;;;;;6.68;1.60;;;12.10;99.90;;;12.17;71.81;101539.19;5209459;28;20045;-71
2022/05/28 00:19:31;;;;;;;1.65;0.68;;;12.00;99.90;;;12.13;72.35;101542.50;5209718;28;20060;-71
2022/05/28 00:22:03;;;;;;;3.50;1.02;;;12.00;99.90;;;12.08;72.27;101542.31;5209736;28;20060;-71
2022/05/28 00:24:35;;;;;;;2.65;0.93;;;12.00;99.90;;;12.05;72.24;101538.69;5208881;28;20045;-72
2022/05/28 00:27:08;;;;;;;2.35;0.60;;;11.90;99.90;;;12.00;72.27;101534.97;5209215;28;20406;-71
2022/05/28 00:29:40;;;;;;;2.63;1.00;;;11.90;99.90;;;11.98;72.51;101534.03;5208886;28;20072;-71
2022/05/28 00:32:12;;;;;;;2.33;0.73;;;11.80;99.90;;;11.96;73.07;101533.97;5209217;28;20061;-72
2022/05/28 00:34:44;;;;;;;3.03;0.80;;;11.80;99.90;;;11.94;72.99;101530.41;5209171;28;20041;-72
2022/05/28 00:37:16;;;;;;;2.80;0.82;;;11.80;99.90;;;11.94;73.25;101528.69;5208845;28;20052;-71
2022/05/28 00:39:48;;;;;;;2.83;0.93;;;11.80;99.90;;;11.94;73.47;101522.59;5208920;28;20132;-72
2022/05/28 00:42:22;;;;;;;1.60;0.73;;;11.80;99.90;;;11.96;73.49;101520.91;5208876;28;20056;-72
2022/05/28 00:44:54;;;;;;;2.25;0.93;;;11.80;99.90;;;11.97;73.18;101520.09;5208930;28;20053;-71
2022/05/28 00:47:26;;;;;;;3.17;0.93;;;11.80;99.90;;;11.99;73.13;101515.78;5208961;28;20049;-72
2022/05/28 00:49:59;;;;;;;2.22;0.63;;;11.80;99.90;;;12.02;72.93;101521.16;5208795;28;20072;-71
2022/05/28 00:52:33;;;;;;;3.13;0.82;;;11.80;99.90;;;12.05;72.68;101512.53;5208763;28;20053;-71
2022/05/28 00:55:06;;;;;;;1.08;0.93;;;11.90;99.90;;;12.05;72.63;101502.97;5208970;28;20076;-73
2022/05/28 00:57:43;;;;;;;1.80;0.73;;;11.90;99.90;;;12.07;72.50;101503.97;5208866;28;20068;-72
2022/05/28 01:00:19;;;;;;;3.42;0.90;;;11.90;99.90;;;12.08;72.40;101495.28;5208370;28;20049;-71
2022/05/28 01:02:57;;;;;;;2.15;1.05;;;11.90;99.90;;;12.09;72.29;101507.50;5208272;28;20061;-72
2022/05/28 01:05:35;;;;;;;2.78;0.90;;;11.90;99.90;;;12.05;72.08;101504.69;5208381;28;20041;-71
2022/05/28 01:08:16;;;;;;;2.80;1.10;;;11.90;99.90;;;11.98;72.07;101513.13;5208422;28;20049;-72
2022/05/28 01:10:58;;;;;;;4.18;1.15;;;11.80;99.90;;;11.92;72.03;101503.31;5208317;28;20410;-74
2022/05/28 01:13:37;;;;;;;3.20;0.88;;;11.80;99.90;;;11.85;72.41;101507.41;5208127;28;20060;-73
2022/05/28 01:16:20;;;;;;;3.10;1.08;;;11.70;99.90;;;11.77;72.92;101500.94;5208199;28;20056;-72
2022/05/28 01:19:02;;;;;;;1.77;0.90;;;11.70;99.90;;;11.71;73.47;101499.81;5207830;28;20137;-71
2022/05/28 01:21:43;;;;;;;2.38;1.00;;;11.60;99.90;;;11.65;73.86;101490.88;5207368;28;20050;-71
2022/05/28 01:24:25;;;;;;;2.60;0.95;;;11.60;99.90;;;11.62;74.17;101498.59;5207843;28;20061;-71
2022/05/28 01:27:03;;;;;;;2.28;1.13;;;11.50;99.90;;;11.59;74.63;101493.22;5208057;28;20053;-72
2022/05/28 01:29:40;;;;;;;3.15;1.30;;;11.50;99.90;;;11.57;74.75;101480.97;5207619;28;20049;-72
2022/05/28 01:32:14;;;;;;;4.00;1.00;;;11.40;99.90;;;11.56;74.80;101469.63;5208218;28;20049;-71
2022/05/28 01:34:47;;;;;;;2.17;0.90;;;11.40;99.90;;;11.59;74.91;101474.06;5207555;28;20052;-71
2022/05/28 01:37:21;;;;;;;2.20;1.33;;;11.50;99.90;;;11.63;75.42;101471.66;5208001;28;20505;-72
2022/05/28 01:39:54;;;;;;;1.10;0.82;;;11.50;99.90;;;11.67;75.31;101465.75;5207574;28;20058;-73
2022/05/28 01:42:29;;;;;;;3.35;1.02;;;11.50;99.90;;;11.72;75.15;101467.63;5207559;28;20041;-71
2022/05/28 01:45:02;;;;;;;0.90;0.90;;;11.60;99.90;;;11.79;75.08;101474.88;5207354;28;20068;-72
2022/05/28 01:47:36;;;;;;;2.28;1.27;;;11.70;99.90;;;11.86;74.58;101470.00;5207909;28;20053;-71
2022/05/28 01:50:11;;;;;;;3.95;0.73;;;11.70;99.90;;;11.93;74.34;101452.84;5207154;28;20418;-72
2022/05/28 01:52:45;;;;;;;2.83;0.95;;;11.80;99.90;;;11.99;73.84;101453.09;5208078;28;20475;-72
2022/05/28 01:55:20;;;;;;;3.17;1.08;;;11.80;99.90;;;12.01;73.23;101454.06;5207110;28;20049;-72
2022/05/28 01:57:53;;;;;;;2.70;1.10;;;11.90;99.90;;;12.03;72.99;101457.63;5207587;28;20152;-72
2022/05/28 02:00:25;;;;;;;2.75;0.93;;;11.90;99.90;;;12.04;72.63;101466.34;5207340;28;20506;-71
2022/05/28 02:03:00;;;;;;;2.95;0.93;;;11.90;99.90;;;12.03;73.07;101464.56;5207625;28;20482;-72
2022/05/28 02:05:32;;;;;;;;;;;11.90;99.90;;;12.00;72.84;101465.34;5207793;28;20056;-72
2022/05/28 02:08:05;;;;;;;2.05;0.98;;;11.90;99.90;;;11.98;73.13;101461.75;5207146;28;19921;-71
2022/05/28 02:10:43;;;;;;;2.35;1.08;;;11.90;99.90;;;11.97;73.26;101462.59;5207048;28;20100;-71
2022/05/28 02:13:26;;;;;;;1.98;1.20;;;11.80;99.90;;;11.93;73.53;101460.69;5207435;28;20415;-72
2022/05/28 02:16:07;;;;;;;4.25;1.70;;;11.80;99.90;;;11.89;73.61;101458.78;5207043;28;20053;-70
2022/05/28 02:18:46;;;;;;;2.85;1.10;;;11.80;99.90;;;11.84;74.10;101452.50;5206883;28;20045;-72
2022/05/28 02:21:27;;;;;;;3.47;1.17;;;11.70;99.90;;;11.81;74.43;101458.50;5206899;28;20050;-70
2022/05/28 02:24:05;;;;;;;3.67;1.38;;;11.70;99.90;;;11.80;74.46;101450.53;5206873;28;20145;-71
2022/05/28 02:26:44;;;;;;;2.63;1.13;;;11.70;99.90;;;11.81;74.13;101460.22;5207161;28;20049;-72
2022/05/28 02:29:18;;;;;;;2.65;1.00;;;11.70;99.90;;;11.81;74.24;101449.78;5206914;28;20053;-71
2022/05/28 02:31:51;;;;;;;3.92;1.30;;;11.70;99.90;;;11.82;74.54;101456.78;5206044;28;20053;-70
2022/05/28 02:34:23;;;;;;;3.10;1.17;;;11.70;99.90;;;11.80;74.37;101454.06;5206620;28;20050;-71
2022/05/28 02:36:55;;;;;;;3.17;1.00;;;11.70;99.90;;;11.79;74.41;101453.97;5206454;28;20068;-71
2022/05/28 02:39:27;;;;;;;2.53;1.17;;;11.60;99.90;;;11.80;74.45;101450.53;5206461;28;20053;-71
2022/05/28 02:41:59;;;;;;;3.00;1.10;;;11.70;99.90;;;11.80;74.16;101455.75;5206976;28;20497;-71
2022/05/28 02:44:32;;;;;;;2.15;1.02;;;11.70;99.90;;;11.81;74.25;101450.66;5206441;28;20086;-71
2022/05/28 02:47:05;;;;;;;2.95;1.10;;;11.70;99.90;;;11.82;74.65;101439.38;5206645;28;20057;-72
2022/05/28 02:49:38;;;;;;;2.65;1.02;;;11.70;99.90;;;11.84;74.36;101442.94;5205946;28;20128;-71
2022/05/28 02:52:10;;;;;;;1.77;0.85;;;11.70;99.90;;;11.87;73.83;101442.19;5206482;28;20442;-71
2022/05/28 02:54:42;;;;;;;2.70;0.88;;;11.70;99.90;;;11.92;73.83;101432.78;5206585;28;20049;-72
2022/05/28 02:57:14;;;;;;;2.75;1.02;;;11.80;99.90;;;11.97;73.60;101436.47;5206401;28;20053;-72
2022/05/28 02:59:48;;;;;;;2.55;1.00;;;11.80;99.90;;;12.03;73.49;101438.44;5205905;28;20056;-73
2022/05/28 03:02:20;;;;;;;3.13;1.05;;;11.90;99.90;;;12.09;73.50;101443.91;5205924;28;20057;-70
2022/05/28 03:04:52;;;;;;;3.38;1.38;;;11.90;99.90;;;12.15;73.56;101445.03;5206263;28;20049;-72
2022/05/28 03:07:23;;;;;;;2.05;1.20;;;12.00;99.90;;;12.21;73.25;101445.28;5206184;28;20049;-71
2022/05/28 03:09:56;;;;;;;1.70;0.90;;;12.00;99.90;;;12.26;73.14;101437.63;5205994;28;20049;-70
2022/05/28 03:12:28;;;;;;;4.72;1.55;;;12.10;99.90;;;12.31;72.76;101441.25;5205759;28;20108;-71
2022/05/28 03:15:01;;;;;;;3.47;1.05;;;12.10;99.90;;;12.32;72.49;101442.16;5205907;28;20041;-72
2022/05/28 03:17:33;;;;;;;5.30;1.20;;;12.20;99.90;;;12.33;72.19;101446.56;5206256;28;20414;-71
2022/05/28 03:20:11;;;;;;;3.58;1.20;;;12.20;99.90;;;12.35;72.02;101448.41;5205784;28;20050;-71
2022/05/28 03:22:43;;;;;;;3.53;1.27;;;12.20;99.90;;;12.39;71.90;101449.44;5205571;28;20683;-72
2022/05/28 03:25:16;;;;;;;8.45;2.03;;;12.30;99.90;;;12.41;71.76;101447.75;5206044;28;20046;-72
2022/05/28 03:27:48;;;;;;;6.72;1.45;;;12.30;99.90;;;12.41;71.02;101447.75;5206008;28;20056;-73
2022/05/28 03:30:21;;;;;;;5.70;1.55;;;12.30;99.90;;;12.40;70.87;101451.19;5205666;28;20049;-71
2022/05/28 03:32:53;;;;;;;4.00;1.60;;;12.30;99.90;;;12.38;70.65;101447.63;5205466;28;20059;-73
2022/05/28 03:35:25;;;;;;;5.00;1.25;;;12.30;99.90;;;12.36;70.30;101449.28;5205571;28;20041;-72
2022/05/28 03:37:57;;;;;;;2.85;1.42;;;12.30;99.90;;;12.38;70.46;101442.38;5205828;28;20097;-71
2022/05/28 03:40:29;;;;;;;4.47;1.20;;;12.30;99.90;;;12.40;70.00;101446.84;5205765;28;20080;-70
2022/05/28 03:43:01;;;;;;;5.95;1.23;;;12.30;99.90;;;12.43;70.14;101456.53;5205470;28;20049;-71
2022/05/28 03:45:35;;;;;;;4.60;1.13;;;12.30;99.90;;;12.45;70.02;101449.63;5205544;28;20053;-72
2022/05/28 03:48:11;;;;;;;3.42;1.17;;;12.30;99.90;;;12.46;70.13;101446.22;5205222;28;20084;-72
2022/05/28 03:50:43;;;;;;;9.25;1.67;;;12.40;99.90;;;12.44;69.96;101453.97;5205700;28;20061;-71
2022/05/28 03:53:15;;;;;;;5.35;1.67;;;12.30;99.90;;;12.44;69.58;101450.47;5205547;28;20176;-72
2022/05/28 03:55:47;;;;;;;6.05;2.15;;;12.40;99.90;;;12.44;69.69;101455.69;5205307;28;20049;-71
2022/05/28 03:58:19;;;;;;;5.35;1.40;;;12.30;99.90;;;12.44;69.70;101447.84;5205013;28;20056;-71
2022/05/28 04:00:53;;;;;;;4.28;1.23;;;12.40;99.90;;;12.47;69.89;101453.22;5205726;28;20542;-72
2022/05/28 04:03:25;;;;;;;4.03;1.23;;;12.40;99.90;;;12.48;69.88;101447.13;5205429;28;20478;-71
2022/05/28 04:05:57;;;;;;;3.97;1.38;;;12.40;99.90;;;12.53;70.01;101450.81;5205446;28;20402;-71
2022/05/28 04:08:29;;;;;;;3.35;1.20;;;12.40;99.90;;;12.56;69.43;101448.31;5205254;28;20513;-72
2022/05/28 04:11:01;;;;;;;5.28;1.58;;;12.40;99.90;;;12.60;69.93;101441.47;5205463;28;20049;-71
2022/05/28 04:13:33;;;;;;;3.80;1.33;;;12.50;99.90;;;12.58;69.85;101448.34;5205419;28;20049;-71
2022/05/28 04:16:07;;;;;;;6.03;1.20;;;12.50;99.90;;;12.61;69.74;101451.09;5205515;28;20474;-72
2022/05/28 04:18:40;;;;;;;3.20;1.20;;;12.50;99.90;;;12.63;69.88;101452.03;5205116;28;20402;-72
2022/05/28 04:21:12;;;;;;;3.67;1.48;;;12.50;99.90;;;12.66;69.95;101454.78;5205127;28;20140;-71
2022/05/28 04:23:44;;;;;;;4.28;1.35;;;12.50;99.90;;;12.70;69.76;101454.03;5311477;22;20020;-68
2022/05/28 04:26:17;;;;;;;4.32;1.63;;;12.60;99.90;;;12.69;69.86;101450.53;5205632;28;20048;-67
2022/05/28 04:28:49;;;;;;;7.97;1.42;;;12.60;99.90;;;12.71;69.78;101451.50;5205846;28;20049;-70
2022/05/28 04:31:22;;;;;;;16.83;2.25;;;12.60;99.90;;;12.74;69.47;101441.16;5205797;28;20411;-68
2022/05/28 04:33:54;;;;;;;8.10;1.70;;;12.60;99.90;;;12.77;69.76;101459.56;5206156;28;20049;-67
2022/05/28 04:36:26;;;;;;;4.63;1.50;;;12.70;99.90;;;12.80;69.64;101452.66;5205775;28;20049;-69
2022/05/28 04:38:58;;;;;;;5.15;1.40;;;12.60;99.90;;;12.87;69.77;101446.81;5205363;28;20056;-68
2022/05/28 04:41:30;;;;;;;6.13;1.33;;;12.70;99.90;;;12.89;69.51;101458.22;5205495;28;20053;-67
2022/05/28 04:44:02;;;;;;;3.17;1.33;;;12.80;99.90;;;12.93;69.92;101455.78;5205329;28;20049;-68
2022/05/28 04:46:36;;;;;;;5.72;1.38;;;12.80;99.90;;;12.95;69.72;101454.09;5205475;28;20045;-70
2022/05/28 04:49:08;;;;;;;3.97;1.52;;;12.90;99.90;;;12.96;69.44;101460.22;5205399;28;20050;-68
2022/05/28 04:51:40;;;;;;;4.38;1.70;;;12.90;99.90;;;12.99;69.78;101465.56;5205490;28;20055;-68
2022/05/28 04:54:12;;;;;;;7.57;1.80;;;12.90;99.90;;;12.99;69.86;101460.34;5205526;28;20102;-67
2022/05/28 04:56:45;;;;;;;3.17;1.35;;;12.90;99.90;;;13.02;69.97;101463.06;5207812;28;20375;-68
2022/05/28 04:59:18;;;;;;;4.40;1.52;;;12.90;99.90;;;13.07;70.00;101469.34;5209344;28;20075;-68
2022/05/28 05:01:51;;;;;;;5.95;1.77;;;13.00;99.90;;;13.15;70.36;101473.13;5209044;28;20277;-68
2022/05/28 05:04:23;;;;;;;5.82;1.55;;;13.00;99.90;;;13.24;70.51;101476.13;5208918;28;20045;-68
2022/05/28 05:06:55;;;;;;;5.57;1.33;;;13.10;99.90;;;13.42;70.91;101474.94;5208811;28;20056;-68
2022/05/28 05:09:27;;;;;;;7.50;1.60;;;13.20;99.90;;;13.60;70.22;101475.56;5208618;28;20057;-69
2022/05/28 05:11:59;;;;;;;4.38;1.70;;;13.40;99.90;;;13.70;69.55;101480.28;5208977;28;20041;-69
2022/05/28 05:14:31;;;;;;;6.45;1.60;;;13.50;99.90;;;13.74;68.91;101482.16;5208813;28;20045;-68
2022/05/28 05:17:05;;;;;;;7.47;1.42;;;13.60;99.90;;;13.78;68.66;101489.28;5208933;28;20406;-69
2022/05/28 05:19:37;;;;;;;7.00;2.03;;;13.70;99.90;;;13.81;68.35;101476.25;5208584;28;20508;-68
2022/05/28 05:22:09;;;;;;;8.52;1.63;;;13.70;99.90;;;13.87;68.40;101482.53;5208436;28;20144;-68
2022/05/28 05:24:41;;;;;;;5.85;1.60;;;13.80;99.90;;;13.99;68.48;101480.31;5208374;28;20050;-68
2022/05/28 05:27:14;;;;;;;5.75;1.42;;;13.80;99.90;;;14.19;68.43;101479.22;5208573;28;20546;-67
2022/05/28 05:29:46;;;;;;;7.63;1.90;;;14.00;99.90;;;14.49;67.90;101492.41;5208048;28;20055;-68
2022/05/28 05:32:19;;;;;;;4.78;1.48;;;14.20;99.90;;;14.86;66.60;101488.22;5208115;28;20410;-68
2022/05/28 05:34:52;;;;;;;9.27;1.90;;;14.40;99.90;;;15.10;64.52;101488.91;5208428;28;20050;-67
2022/05/28 05:37:24;;;;;;;7.32;1.95;;;14.70;99.90;;;15.17;63.72;101495.22;5208578;28;20475;-68
2022/05/28 05:39:56;;;;;;;5.32;1.95;;;14.80;99.40;;;15.32;63.37;101485.13;5208151;28;20052;-69
2022/05/28 05:42:28;;;;;;;6.95;1.58;;;14.90;99.30;;;15.55;62.67;101490.09;5208225;28;20053;-69
2022/05/28 05:45:00;;;;;;;6.97;2.25;;;15.10;98.90;;;15.91;62.13;101493.66;5207865;28;20121;-70
2022/05/28 05:47:33;;;;;;;6.20;1.83;;;15.40;98.70;;;16.16;60.80;101495.09;5208432;28;20145;-70
2022/05/28 05:50:08;;;;;;;5.43;1.52;;;15.60;98.00;;;16.11;59.92;101494.13;5207582;28;20049;-69
2022/05/28 05:52:40;;;;;;;6.63;1.63;;;15.70;97.20;;;16.18;60.58;101497.78;5208115;28;20538;-68
2022/05/28 05:55:12;;;;;;;5.20;1.80;;;15.80;97.40;;;16.43;60.32;101494.88;5207994;28;20053;-69
2022/05/28 05:57:44;;;;;;;4.70;1.50;;;16.00;97.50;;;16.60;59.99;101496.97;5207520;28;20049;-68
2022/05/28 06:00:18;;;;;;;5.68;1.48;;;16.10;97.10;;;16.74;59.27;101496.41;5207670;28;20486;-69
2022/05/28 06:02:51;;;;;;;7.03;1.98;;;16.30;96.70;;;16.84;59.43;101497.50;5207523;28;20053;-69
2022/05/28 06:05:23;;;;;;;5.53;1.75;;;16.40;96.80;;;17.12;59.20;101501.56;5207920;28;20053;-68
2022/05/28 06:07:56;;;;;;;6.75;2.03;;;16.50;96.70;;;17.40;58.85;101489.78;5207357;28;20042;-69
2022/05/28 06:10:28;;;;;;;9.43;1.70;;;16.80;96.60;;;17.36;57.04;101493.25;5207311;28;20045;-70
2022/05/28 06:13:00;;;;;;;9.05;2.10;;;16.90;95.20;;;17.14;57.63;101496.31;5207391;28;20050;-69
2022/05/28 06:15:32;;;;;;;8.07;1.73;;;16.70;95.10;;;16.83;58.35;101490.47;5207422;28;20050;-69
2022/05/28 06:18:07;;;;;;;6.85;1.73;;;16.60;95.30;;;16.69;59.37;101490.16;5205594;28;20048;-69
2022/05/28 06:20:39;;;;;;;5.90;1.73;;;16.40;95.80;;;16.71;59.70;101488.47;5187728;28;20046;-70
2022/05/28 06:23:11;;;;;;;7.05;2.30;;;16.40;96.00;;;16.64;60.12;101494.44;5187294;28;20050;-69
2022/05/28 06:25:43;;;;;;;5.80;1.67;;;16.40;96.30;;;16.55;60.17;101494.22;5203578;28;20052;-70
2022/05/28 06:28:15;;;;;;;5.43;1.40;;;16.30;96.20;;;16.41;60.42;101491.28;5191576;28;20052;-70
2022/05/28 06:30:49;;;;;;;4.40;1.45;;;16.20;96.20;;;16.29;61.19;101502.41;5191795;28;20049;-71
2022/05/28 06:33:23;;;;;;;5.35;1.42;;;16.10;96.60;;;16.25;61.69;101492.72;5191124;28;20064;-70
2022/05/28 06:35:57;;;;;;;5.68;1.42;;;16.00;96.80;;;16.38;62.17;101496.50;5199029;28;20045;-71
2022/05/28 06:38:30;;;;;;;5.25;1.92;;;16.10;97.30;;;16.49;61.80;101500.22;5189580;28;20100;-69
2022/05/28 06:41:02;;;;;;;6.43;1.90;;;16.20;97.30;;;16.79;61.70;101493.88;5186401;28;20050;-70
2022/05/28 06:43:35;;;;;;;4.13;1.15;;;16.40;97.50;;;16.87;59.85;101497.56;5186772;28;20504;-70
2022/05/28 06:46:09;;;;;;;6.28;1.95;;;16.50;96.30;;;16.98;59.66;101490.75;5186528;28;20046;-71
2022/05/28 06:48:42;;;;;;;3.05;0.90;;;16.60;96.30;;;16.93;58.77;101487.16;5186192;28;20069;-70
2022/05/28 06:51:14;;;;;;;5.03;1.02;;;16.60;95.60;;;16.77;58.70;101495.63;5186270;28;20641;-69
2022/05/28 06:53:50;;;;;;;8.35;1.40;;;16.50;95.30;;;16.85;59.18;101499.28;5186506;28;20057;-71
2022/05/28 06:56:22;;;;;;;5.03;0.98;;;16.50;95.60;;;16.95;57.97;101497.69;5186370;28;20104;-70
2022/05/28 06:58:54;;;;;;;3.58;1.20;;;16.50;95.00;;;16.82;57.21;101488.66;5185729;28;20061;-71
2022/05/28 07:01:26;;;;;;;4.47;1.00;;;16.50;94.30;;;16.63;56.72;101484.75;5185771;28;20049;-70
2022/05/28 07:03:59;;;;;;;3.97;1.15;;;16.40;93.60;;;16.41;56.05;101501.81;5186167;28;20053;-70
2022/05/28 07:06:32;;;;;;;4.35;1.13;;;16.30;93.20;;;16.23;56.66;101498.75;5185986;28;20507;-70
2022/05/28 07:09:05;;;;;;;3.72;1.20;;;16.10;93.10;;;16.12;56.96;101508.16;5185659;28;20053;-70
2022/05/28 07:11:37;;;;;;;2.97;1.13;;;16.00;93.20;;;16.05;57.51;101512.41;5186032;28;20120;-70
2022/05/28 07:14:09;;;;;;;4.00;1.10;;;15.90;93.50;;;16.20;58.68;101504.84;5186156;28;20049;-70
2022/05/28 07:16:41;;;;;;;4.55;1.40;;;15.90;94.30;;;16.51;59.48;101509.06;5185672;28;20045;-62
2022/05/28 07:19:15;;;;;;;3.70;1.05;;;16.20;95.60;;;16.70;58.29;101498.97;5185043;28;20056;-61
2022/05/28 07:21:47;;;;;;;1.95;0.98;;;16.40;94.60;;;16.79;57.66;101504.41;5185813;28;20100;-63
2022/05/28 07:24:19;;;;;;;2.92;1.45;;;16.50;94.20;;;16.84;57.51;101504.53;5185937;28;20414;-63
2022/05/28 07:26:52;;;;;;;3.60;1.35;;;16.60;93.80;;;16.89;56.96;101511.66;5185613;28;20388;-63
2022/05/28 07:29:24;;;;;;;4.30;1.40;;;16.70;93.40;;;16.89;56.34;101510.75;5185288;28;20046;-71
2022/05/28 07:31:56;;;;;;;3.05;1.20;;;16.70;92.80;;;16.76;56.50;101512.28;5186039;28;20053;-71
2022/05/28 07:34:29;;;;;;;3.80;1.30;;;16.60;92.80;;;16.55;56.74;101521.41;5185733;28;20046;-69
2022/05/28 07:37:01;;;;;;;5.22;1.60;;;16.40;92.70;;;16.40;57.22;101521.09;5185574;28;20057;-69
2022/05/28 07:39:33;;;;;;;2.28;1.30;;;16.30;92.90;;;16.23;57.64;101514.53;5185038;28;20513;-64
2022/05/28 07:42:06;;;;;;;3.20;1.30;;;16.10;93.20;;;16.23;58.73;101499.66;5200783;28;20406;-62
2022/05/28 07:44:38;;;;;;;3.50;1.23;;;16.10;94.10;;;16.38;58.59;101507.03;5205588;28;20055;-63
2022/05/28 07:47:10;;;;;;;3.03;1.25;;;16.20;94.00;;;16.65;58.37;101508.47;5203602;28;20056;-62
2022/05/28 07:49:44;;;;;;;5.38;1.30;;;16.40;94.20;;;17.06;57.19;101504.97;5201660;28;20053;-63
2022/05/28 07:52:17;;;;;;;6.93;1.48;;;16.60;93.80;;;17.14;56.35;101513.00;5205632;28;20045;-64
2022/05/28 07:54:49;;;;;;;3.25;1.30;;;16.80;93.00;;;17.23;56.03;101501.78;5202311;28;20049;-63
2022/05/28 07:57:21;;;;;;;2.83;1.00;;;16.90;92.70;;;17.37;56.19;101516.09;5205298;28;20051;-63
2022/05/28 07:59:53;;;;;;;2.03;1.20;;;17.10;92.70;;;17.47;55.08;101507.47;5205501;28;20052;-71
2022/05/28 08:02:25;;;;;;;3.13;1.20;;;17.20;92.00;;;17.43;53.98;101505.66;5205461;28;20413;-70
2022/05/28 08:04:58;;;;;;;3.25;0.90;;;17.20;91.00;;;17.52;53.37;101512.84;5205835;28;20478;-71
2022/05/28 08:07:30;;;;;;;1.48;0.70;;;17.20;90.60;;;18.34;52.09;101500.13;5205583;28;20121;-72
2022/05/28 08:10:02;;;;;;;2.38;1.00;;;17.50;90.70;;;19.43;50.03;101495.31;5205423;28;20060;-74
2022/05/28 08:12:34;;;;;;;2.47;1.02;;;18.20;90.10;;;20.48;47.34;101503.22;5205795;28;20413;-71
2022/05/28 08:15:08;;;;;;;1.88;0.70;;;18.90;87.00;;;21.73;44.27;101497.41;5205391;28;20064;-71
2022/05/28 08:17:40;;;;;;;2.15;0.68;;;19.70;83.60;;;22.52;41.02;101498.19;5205532;28;20049;-70
2022/05/28 08:20:14;;;;;;;2.35;0.95;;;20.30;77.30;;;22.45;39.39;101494.66;5205350;28;20049;-70
2022/05/28 08:25:36;;;;;;;2.90;1.15;;;20.30;71.80;;;22.34;39.42;101502.66;5205934;28;20086;-71
2022/05/28 08:28:08;;;;;;;2.88;0.70;;;20.40;71.10;;;23.92;36.92;101489.38;5205237;28;20133;-73
2022/05/28 08:30:41;;;;;;;3.03;0.77;;;21.00;69.80;;;25.26;33.94;101502.94;5207703;28;20103;-71
2022/05/28 08:33:16;;;;;;;3.05;0.95;;;21.80;66.10;;;26.57;32.13;101498.94;5209396;28;20050;-71
2022/05/28 08:35:51;;;;;;;2.92;0.80;;;22.80;63.50;;;27.78;30.20;101507.84;5209415;28;20045;-71
2022/05/28 08:38:25;;;;;;;4.68;0.98;;;23.90;60.30;;;26.65;30.09;101503.22;5209097;28;20453;-71
2022/05/28 08:40:59;;;;;;;;;;;23.70;57.30;;;27.07;30.75;101508.59;5209805;28;20700;-67
2022/05/28 08:43:34;;;;;;;2.22;0.65;;;24.00;58.30;;;28.22;29.67;101506.66;5209173;28;19921;-68
2022/05/28 08:46:12;;;;;;;26.23;2.38;;;24.80;57.60;;;29.26;28.27;101509.00;5209017;28;20053;-67
2022/05/28 08:48:49;;;;;;;6.60;0.82;;;25.50;56.30;;;30.12;27.04;101509.75;5208551;28;20056;-67
2022/05/28 08:51:34;;;;;;;26.67;2.75;;;26.20;54.90;;;31.08;26.05;101510.69;5208881;28;20060;-67
2022/05/28 08:54:11;;;;;;;9.88;1.40;;;27.00;53.80;;;31.75;25.20;101505.28;5209293;28;20054;-67
2022/05/28 08:56:44;;;;;;;4.05;0.73;;;27.70;52.00;;;32.35;23.92;101514.41;5208743;28;20054;-67
2022/05/28 08:59:22;;;;;;;5.72;1.00;;;28.20;50.50;;;32.34;23.81;101509.06;5208425;28;20056;-65
2022/05/28 09:01:55;;;;;;;3.40;1.00;;;28.30;49.30;;;32.73;22.77;101502.78;5208695;28;20113;-66
2022/05/28 09:04:33;;;;;;;2.22;0.50;;;28.60;47.90;;;32.84;22.85;101506.75;5208683;28;20053;-66
2022/05/28 09:07:14;;;;;;;3.72;0.80;;;28.80;48.20;;;32.77;22.21;101497.19;5208498;28;20131;-67
2022/05/28 09:09:49;;;;;;;4.00;0.63;;;28.80;47.00;;;32.63;22.51;101497.84;5208213;28;20050;-66
2022/05/28 09:12:27;;;;;;;2.95;0.65;;;28.80;46.90;;;32.98;21.88;101503.44;5208894;28;20072;-69
2022/05/28 09:15:00;;;;;;;1.98;0.50;;;29.00;46.10;;;32.69;21.41;101493.97;5208470;28;20053;-68
2022/05/28 09:17:36;;;;;;;1.42;0.52;;;29.00;45.10;;;32.07;22.11;101490.44;5208264;28;20055;-68
2022/05/28 09:20:13;;;;;;;3.92;0.68;;;28.80;45.50;;;31.24;22.40;101500.25;5208369;28;20055;-71
2022/05/28 09:22:46;;;;;;;2.63;0.63;;;28.40;45.10;;;30.35;24.07;101489.25;5208639;28;20054;-69
2022/05/28 09:25:23;;;;;;;3.95;0.60;;;27.90;46.80;;;29.39;25.13;101491.56;5208371;28;20140;-56
2022/05/28 09:28:07;;;;;;;2.33;0.77;;;27.40;46.70;;;28.59;26.17;101489.56;5208530;28;20053;-56
2022/05/28 09:30:53;;;;;;;5.75;0.52;;;26.80;47.90;;;27.57;27.52;101485.97;5184344;28;20620;-57
2022/05/28 09:33:42;;;;;;;1.90;0.60;;;26.20;48.60;;;26.17;28.94;101489.88;5208432;28;20482;-56
2022/05/28 09:36:22;;;;;;;3.55;0.70;;;25.30;49.30;;;24.96;30.78;101484.66;5208325;28;20045;-73
2022/05/28 09:39:04;;;;;;;;;;;24.30;50.70;;;24.27;31.66;101481.03;5208203;28;20045;-71
2022/05/28 09:41:57;;;;;;;1.80;0.47;;;23.70;51.40;;;23.83;31.83;101479.69;5207479;28;19921;-72
2022/05/28 09:44:53;;;;;;;4.00;0.73;;;23.20;52.00;;;23.44;33.15;101480.88;5208267;28;20140;-71
2022/05/28 09:47:25;;;;;;;4.60;0.77;;;22.90;52.90;;;23.11;33.72;101468.69;5208025;28;20049;-71
2022/05/28 09:49:58;;;;;;;2.70;0.65;;;22.60;53.70;;;22.83;33.93;101486.56;5207789;28;20046;-72
2022/05/28 09:52:34;;;;;;;2.08;0.50;;;22.30;54.00;;;22.19;33.55;101478.78;5208488;28;20049;-71
2022/05/28 09:55:15;;;;;;;1.75;0.50;;;21.80;53.00;;;21.78;34.37;101479.72;5207912;28;20053;-72
2022/05/28 09:57:55;;;;;;;2.55;0.70;;;21.40;54.00;;;21.79;35.62;101476.16;5208088;28;20498;-72
2022/05/28 10:00:28;;;;;;;2.75;0.43;;;21.30;55.60;;;21.68;36.35;101472.63;5206566;28;20050;-72
2022/05/28 10:05:55;;;;;;;2.10;0.63;;;20.80;55.80;;;20.79;36.14;101467.13;5207876;28;20079;-72
2022/05/28 10:08:31;;;;;;;1.27;0.40;;;20.50;55.60;;;20.91;37.03;101473.34;5207194;28;20065;-70
2022/05/28 10:11:07;;;;;;;2.30;0.80;;;20.40;57.10;;;21.29;36.96;101463.75;5207497;28;20437;-72
2022/05/28 10:13:45;;;;;;;2.80;1.00;;;20.60;57.40;;;21.61;36.49;101460.25;5207183;28;20049;-71
2022/05/28 10:16:19;;;;;;;4.82;0.70;;;20.90;57.00;;;21.89;36.04;101456.69;5207250;28;20053;-72
2022/05/28 10:18:56;;;;;;;1.90;0.57;;;21.10;56.80;;;21.89;34.79;101456.69;5207506;28;20051;-73
2022/05/28 10:21:33;;;;;;;1.75;0.63;;;21.20;54.90;;;21.46;34.19;101465.56;5207414;28;20056;-72
2022/05/28 10:24:17;;;;;;;2.63;0.60;;;21.00;53.90;;;20.96;33.20;101458.34;5207121;28;20067;-73
2022/05/28 10:26:56;;;;;;;0.50;0.50;;;20.60;52.40;;;20.95;34.36;101461.91;5355023;22;20059;-71
2022/05/28 10:29:36;;;;;;;3.15;0.50;;;20.50;53.60;;;21.18;34.66;101454.84;5203199;28;20063;-71
2022/05/28 10:32:24;;;;;;;2.10;0.50;;;20.60;54.60;;;21.43;34.99;101444.31;5207103;28;20099;-72
2022/05/28 10:35:03;;;;;;;5.45;0.90;;;20.80;55.70;;;21.27;34.14;101454.00;5207252;28;20390;-72
2022/05/28 10:37:35;;;;;;;0.60;0.40;;;20.70;54.10;;;20.94;33.18;101460.13;5207136;28;20129;-71
2022/05/28 10:40:14;;;;;;;6.68;1.33;;;20.50;52.80;;;20.91;33.67;101460.09;5206179;28;20053;-66
2022/05/28 10:42:49;;;;;;;3.95;0.88;;;20.40;53.30;;;21.11;33.85;101458.38;5206305;28;20049;-65
2022/05/28 10:45:21;;;;;;;3.72;0.70;;;20.50;53.70;;;21.34;33.95;101448.75;5204006;28;20138;-66
2022/05/28 10:48:23;;;;;;;4.35;0.73;;;20.70;53.80;;;21.67;33.83;101449.63;5206627;28;20041;-53